sensor_id;sensor_type;location;lat;lon;timestamp;P1;durP1;ratioP1;P2;durP2;ratioP2
76801;SDS011;66403;50.832;10.950;2023-04-03T00:02:32;5.40;;;1.08;;
76801;SDS011;66403;50.832;10.950;2023-04-03T00:07:33;2.88;;;0.80;;
76801;SDS011;66403;50.832;10.950;2023-04-03T00:12:33;2.80;;;0.98;;
76801;SDS011;66403;50.832;10.950;2023-04-03T00:17:34;1.88;;;0.68;;
76801;SDS011;66403;50.832;10.950;2023-04-03T00:22:34;1.38;;;0.70;;
76801;SDS011;66403;50.832;10.950;2023-04-03T00:27:38;5.65;;;1.10;;
76801;SDS011;66403;50.832;10.950;2023-04-03T00:32:39;6.05;;;1.02;;
76801;SDS011;66403;50.832;10.950;2023-04-03T00:37:40;5.20;;;0.70;;
76801;SDS011;66403;50.832;10.950;2023-04-03T00:42:42;2.60;;;1.13;;
76801;SDS011;66403;50.832;10.950;2023-04-03T00:47:43;3.97;;;0.82;;
76801;SDS011;66403;50.832;10.950;2023-04-03T00:52:44;1.10;;;0.90;;
76801;SDS011;66403;50.832;10.950;2023-04-03T00:57:46;1.58;;;0.70;;
76801;SDS011;66403;50.832;10.950;2023-04-03T01:02:47;5.57;;;1.30;;
76801;SDS011;66403;50.832;10.950;2023-04-03T01:07:49;2.65;;;1.00;;
76801;SDS011;66403;50.832;10.950;2023-04-03T01:12:50;1.90;;;0.55;;
76801;SDS011;66403;50.832;10.950;2023-04-03T01:17:52;7.05;;;1.45;;
76801;SDS011;66403;50.832;10.950;2023-04-03T01:28:11;5.70;;;1.13;;
76801;SDS011;66403;50.832;10.950;2023-04-03T01:33:13;2.97;;;0.82;;
76801;SDS011;66403;50.832;10.950;2023-04-03T01:38:14;1.55;;;0.82;;
76801;SDS011;66403;50.832;10.950;2023-04-03T01:43:15;1.00;;;0.63;;
76801;SDS011;66403;50.832;10.950;2023-04-03T01:48:16;2.50;;;1.20;;
76801;SDS011;66403;50.832;10.950;2023-04-03T01:53:17;3.00;;;1.52;;
76801;SDS011;66403;50.832;10.950;2023-04-03T01:58:17;3.03;;;1.15;;
76801;SDS011;66403;50.832;10.950;2023-04-03T02:03:18;2.90;;;1.08;;
76801;SDS011;66403;50.832;10.950;2023-04-03T02:08:19;5.75;;;1.17;;
76801;SDS011;66403;50.832;10.950;2023-04-03T02:13:19;3.10;;;1.20;;
76801;SDS011;66403;50.832;10.950;2023-04-03T02:18:19;2.58;;;1.15;;
76801;SDS011;66403;50.832;10.950;2023-04-03T02:23:20;4.22;;;1.08;;
76801;SDS011;66403;50.832;10.950;2023-04-03T02:28:20;6.75;;;1.48;;
76801;SDS011;66403;50.832;10.950;2023-04-03T02:33:21;4.88;;;0.95;;
76801;SDS011;66403;50.832;10.950;2023-04-03T02:38:22;1.98;;;1.05;;
76801;SDS011;66403;50.832;10.950;2023-04-03T02:43:23;4.32;;;1.27;;
76801;SDS011;66403;50.832;10.950;2023-04-03T02:48:25;4.55;;;1.15;;
76801;SDS011;66403;50.832;10.950;2023-04-03T02:53:27;3.58;;;1.00;;
76801;SDS011;66403;50.832;10.950;2023-04-03T02:58:28;2.40;;;1.52;;
76801;SDS011;66403;50.832;10.950;2023-04-03T03:03:31;3.30;;;1.52;;
76801;SDS011;66403;50.832;10.950;2023-04-03T03:08:32;4.28;;;1.40;;
76801;SDS011;66403;50.832;10.950;2023-04-03T03:13:32;2.30;;;1.45;;
76801;SDS011;66403;50.832;10.950;2023-04-03T03:18:33;2.25;;;1.33;;
76801;SDS011;66403;50.832;10.950;2023-04-03T03:23:33;4.32;;;1.58;;
76801;SDS011;66403;50.832;10.950;2023-04-03T03:28:34;6.03;;;1.88;;
76801;SDS011;66403;50.832;10.950;2023-04-03T03:33:36;2.97;;;1.65;;
76801;SDS011;66403;50.832;10.950;2023-04-03T03:38:36;5.60;;;1.75;;
76801;SDS011;66403;50.832;10.950;2023-04-03T03:43:37;4.57;;;2.03;;
76801;SDS011;66403;50.832;10.950;2023-04-03T03:48:39;3.05;;;1.67;;
76801;SDS011;66403;50.832;10.950;2023-04-03T03:53:40;5.20;;;3.13;;
76801;SDS011;66403;50.832;10.950;2023-04-03T03:58:45;6.35;;;2.63;;
76801;SDS011;66403;50.832;10.950;2023-04-03T04:03:46;7.03;;;2.92;;
76801;SDS011;66403;50.832;10.950;2023-04-03T04:08:51;6.03;;;2.78;;
76801;SDS011;66403;50.832;10.950;2023-04-03T04:13:52;2.35;;;2.00;;
76801;SDS011;66403;50.832;10.950;2023-04-03T04:18:55;5.72;;;2.97;;
76801;SDS011;66403;50.832;10.950;2023-04-03T04:23:56;6.88;;;2.17;;
76801;SDS011;66403;50.832;10.950;2023-04-03T04:28:57;6.30;;;2.42;;
76801;SDS011;66403;50.832;10.950;2023-04-03T04:33:59;4.57;;;2.22;;
76801;SDS011;66403;50.832;10.950;2023-04-03T04:39:00;7.38;;;2.75;;
76801;SDS011;66403;50.832;10.950;2023-04-03T04:44:02;4.60;;;2.88;;
76801;SDS011;66403;50.832;10.950;2023-04-03T04:49:03;5.72;;;2.42;;
76801;SDS011;66403;50.832;10.950;2023-04-03T04:54:05;3.50;;;2.17;;
76801;SDS011;66403;50.832;10.950;2023-04-03T04:59:06;4.95;;;3.03;;
76801;SDS011;66403;50.832;10.950;2023-04-03T05:04:06;3.30;;;2.90;;
76801;SDS011;66403;50.832;10.950;2023-04-03T05:09:08;6.10;;;2.40;;
76801;SDS011;66403;50.832;10.950;2023-04-03T05:14:10;3.60;;;2.55;;
76801;SDS011;66403;50.832;10.950;2023-04-03T05:19:10;4.35;;;3.17;;
76801;SDS011;66403;50.832;10.950;2023-04-03T05:24:13;3.97;;;2.15;;
76801;SDS011;66403;50.832;10.950;2023-04-03T05:29:16;4.70;;;2.53;;
76801;SDS011;66403;50.832;10.950;2023-04-03T05:34:17;4.60;;;3.03;;
76801;SDS011;66403;50.832;10.950;2023-04-03T05:39:20;4.07;;;2.33;;
76801;SDS011;66403;50.832;10.950;2023-04-03T05:44:22;8.75;;;3.13;;
76801;SDS011;66403;50.832;10.950;2023-04-03T05:49:24;4.95;;;3.10;;
76801;SDS011;66403;50.832;10.950;2023-04-03T05:54:26;3.95;;;2.85;;
76801;SDS011;66403;50.832;10.950;2023-04-03T05:59:38;5.72;;;2.45;;
76801;SDS011;66403;50.832;10.950;2023-04-03T06:04:38;3.83;;;2.47;;
76801;SDS011;66403;50.832;10.950;2023-04-03T06:09:39;8.60;;;3.33;;
76801;SDS011;66403;50.832;10.950;2023-04-03T06:14:40;4.20;;;2.28;;
76801;SDS011;66403;50.832;10.950;2023-04-03T06:19:41;2.45;;;2.00;;
76801;SDS011;66403;50.832;10.950;2023-04-03T06:24:41;3.08;;;2.47;;
76801;SDS011;66403;50.832;10.950;2023-04-03T06:29:42;5.70;;;3.22;;
76801;SDS011;66403;50.832;10.950;2023-04-03T06:34:43;2.72;;;2.10;;
76801;SDS011;66403;50.832;10.950;2023-04-03T06:39:43;4.63;;;2.38;;
76801;SDS011;66403;50.832;10.950;2023-04-03T06:44:45;4.10;;;2.78;;
76801;SDS011;66403;50.832;10.950;2023-04-03T06:49:45;6.63;;;2.28;;
76801;SDS011;66403;50.832;10.950;2023-04-03T06:54:46;5.88;;;2.72;;
76801;SDS011;66403;50.832;10.950;2023-04-03T06:59:47;4.57;;;2.70;;
76801;SDS011;66403;50.832;10.950;2023-04-03T07:04:47;4.30;;;2.08;;
76801;SDS011;66403;50.832;10.950;2023-04-03T07:09:48;3.45;;;2.50;;
76801;SDS011;66403;50.832;10.950;2023-04-03T07:14:49;2.80;;;1.98;;
76801;SDS011;66403;50.832;10.950;2023-04-03T07:19:50;3.78;;;2.15;;
76801;SDS011;66403;50.832;10.950;2023-04-03T07:24:50;3.67;;;1.90;;
76801;SDS011;66403;50.832;10.950;2023-04-03T07:29:51;4.20;;;2.42;;
76801;SDS011;66403;50.832;10.950;2023-04-03T07:34:51;4.82;;;1.58;;
76801;SDS011;66403;50.832;10.950;2023-04-03T07:39:51;3.05;;;1.70;;
76801;SDS011;66403;50.832;10.950;2023-04-03T07:44:52;6.15;;;1.88;;
76801;SDS011;66403;50.832;10.950;2023-04-03T07:49:53;4.82;;;1.33;;
76801;SDS011;66403;50.832;10.950;2023-04-03T07:54:53;2.40;;;1.88;;
76801;SDS011;66403;50.832;10.950;2023-04-03T07:59:53;5.50;;;1.80;;
76801;SDS011;66403;50.832;10.950;2023-04-03T08:04:54;5.88;;;1.77;;
76801;SDS011;66403;50.832;10.950;2023-04-03T08:09:55;5.85;;;2.17;;
76801;SDS011;66403;50.832;10.950;2023-04-03T08:14:55;5.93;;;3.03;;
76801;SDS011;66403;50.832;10.950;2023-04-03T08:19:56;6.82;;;2.38;;
76801;SDS011;66403;50.832;10.950;2023-04-03T08:24:56;6.00;;;2.47;;
76801;SDS011;66403;50.832;10.950;2023-04-03T08:29:57;5.20;;;1.67;;
76801;SDS011;66403;50.832;10.950;2023-04-03T08:34:57;3.60;;;2.13;;
76801;SDS011;66403;50.832;10.950;2023-04-03T08:39:58;7.60;;;2.78;;
76801;SDS011;66403;50.832;10.950;2023-04-03T08:44:59;2.63;;;1.30;;
76801;SDS011;66403;50.832;10.950;2023-04-03T08:50:07;4.18;;;1.17;;
76801;SDS011;66403;50.832;10.950;2023-04-03T09:00:28;2.22;;;1.17;;
76801;SDS011;66403;50.832;10.950;2023-04-03T09:05:35;1.45;;;1.30;;
76801;SDS011;66403;50.832;10.950;2023-04-03T09:10:43;1.38;;;0.95;;
76801;SDS011;66403;50.832;10.950;2023-04-03T09:15:44;2.80;;;1.10;;
76801;SDS011;66403;50.832;10.950;2023-04-03T09:26:09;2.95;;;1.00;;
76801;SDS011;66403;50.832;10.950;2023-04-03T09:36:37;2.08;;;0.75;;
76801;SDS011;66403;50.832;10.950;2023-04-03T09:42:01;16.00;;;2.25;;
76801;SDS011;66403;50.832;10.950;2023-04-03T09:47:19;0.88;;;0.80;;
76801;SDS011;66403;50.832;10.950;2023-04-03T09:52:27;2.45;;;0.93;;
76801;SDS011;66403;50.832;10.950;2023-04-03T09:57:32;2.45;;;0.82;;
76801;SDS011;66403;50.832;10.950;2023-04-03T10:02:37;5.88;;;1.30;;
76801;SDS011;66403;50.832;10.950;2023-04-03T10:07:39;2.70;;;1.30;;
76801;SDS011;66403;50.832;10.950;2023-04-03T10:12:40;3.63;;;0.80;;
76801;SDS011;66403;50.832;10.950;2023-04-03T10:17:49;1.15;;;0.70;;
76801;SDS011;66403;50.832;10.950;2023-04-03T10:23:03;2.15;;;0.60;;
76801;SDS011;66403;50.832;10.950;2023-04-03T10:28:20;3.20;;;1.10;;
76801;SDS011;66403;50.832;10.950;2023-04-03T10:54:38;2.00;;;0.60;;
76801;SDS011;66403;50.832;10.950;2023-04-03T10:59:41;0.88;;;0.57;;
76801;SDS011;66403;50.832;10.950;2023-04-03T11:04:48;1.15;;;0.60;;
76801;SDS011;66403;50.832;10.950;2023-04-03T11:09:52;1.33;;;0.88;;
76801;SDS011;66403;50.832;10.950;2023-04-03T11:14:55;3.33;;;0.80;;
76801;SDS011;66403;50.832;10.950;2023-04-03T11:25:14;2.25;;;0.75;;
76801;SDS011;66403;50.832;10.950;2023-04-03T11:35:49;2.30;;;1.08;;
76801;SDS011;66403;50.832;10.950;2023-04-03T11:40:54;2.83;;;1.38;;
76801;SDS011;66403;50.832;10.950;2023-04-03T11:46:04;4.00;;;1.08;;
76801;SDS011;66403;50.832;10.950;2023-04-03T12:01:44;1.60;;;0.70;;
76801;SDS011;66403;50.832;10.950;2023-04-03T12:11:45;2.53;;;1.23;;
76801;SDS011;66403;50.832;10.950;2023-04-03T12:16:46;1.97;;;0.97;;
76801;SDS011;66403;50.832;10.950;2023-04-03T12:37:21;1.85;;;0.77;;
76801;SDS011;66403;50.832;10.950;2023-04-03T12:42:46;2.22;;;1.55;;
76801;SDS011;66403;50.832;10.950;2023-04-03T12:48:06;3.47;;;1.40;;
76801;SDS011;66403;50.832;10.950;2023-04-03T12:53:33;2.95;;;1.38;;
76801;SDS011;66403;50.832;10.950;2023-04-03T12:58:34;2.40;;;0.70;;
76801;SDS011;66403;50.832;10.950;2023-04-03T13:03:35;1.50;;;0.77;;
76801;SDS011;66403;50.832;10.950;2023-04-03T13:08:38;2.05;;;0.70;;
76801;SDS011;66403;50.832;10.950;2023-04-03T13:13:55;3.28;;;1.30;;
76801;SDS011;66403;50.832;10.950;2023-04-03T13:18:57;4.90;;;2.00;;
76801;SDS011;66403;50.832;10.950;2023-04-03T13:23:59;2.70;;;1.00;;
76801;SDS011;66403;50.832;10.950;2023-04-03T13:29:14;1.35;;;0.90;;
76801;SDS011;66403;50.832;10.950;2023-04-03T13:34:22;3.13;;;0.52;;
76801;SDS011;66403;50.832;10.950;2023-04-03T13:39:30;2.55;;;0.90;;
76801;SDS011;66403;50.832;10.950;2023-04-03T13:44:34;1.83;;;0.52;;
76801;SDS011;66403;50.832;10.950;2023-04-03T13:49:37;2.67;;;0.88;;
76801;SDS011;66403;50.832;10.950;2023-04-03T13:54:40;2.35;;;0.93;;
76801;SDS011;66403;50.832;10.950;2023-04-03T13:59:40;1.35;;;0.70;;
76801;SDS011;66403;50.832;10.950;2023-04-03T14:09:44;1.25;;;0.57;;
76801;SDS011;66403;50.832;10.950;2023-04-03T14:14:45;3.27;;;1.00;;
76801;SDS011;66403;50.832;10.950;2023-04-03T14:19:45;2.50;;;1.00;;
76801;SDS011;66403;50.832;10.950;2023-04-03T14:24:46;3.50;;;1.20;;
76801;SDS011;66403;50.832;10.950;2023-04-03T14:29:47;3.00;;;1.15;;
76801;SDS011;66403;50.832;10.950;2023-04-03T14:34:49;3.10;;;1.30;;
76801;SDS011;66403;50.832;10.950;2023-04-03T14:39:51;2.90;;;1.58;;
76801;SDS011;66403;50.832;10.950;2023-04-03T14:44:53;2.28;;;1.60;;
76801;SDS011;66403;50.832;10.950;2023-04-03T14:49:54;3.17;;;1.40;;
76801;SDS011;66403;50.832;10.950;2023-04-03T14:54:54;5.28;;;2.00;;
76801;SDS011;66403;50.832;10.950;2023-04-03T14:59:55;4.32;;;2.15;;
76801;SDS011;66403;50.832;10.950;2023-04-03T15:04:55;3.20;;;1.27;;
76801;SDS011;66403;50.832;10.950;2023-04-03T15:09:56;4.50;;;1.52;;
76801;SDS011;66403;50.832;10.950;2023-04-03T15:14:56;2.92;;;0.85;;
76801;SDS011;66403;50.832;10.950;2023-04-03T15:19:58;2.08;;;0.90;;
76801;SDS011;66403;50.832;10.950;2023-04-03T15:24:58;3.35;;;1.20;;
76801;SDS011;66403;50.832;10.950;2023-04-03T15:29:58;1.92;;;1.00;;
76801;SDS011;66403;50.832;10.950;2023-04-03T15:34:59;3.80;;;1.33;;
76801;SDS011;66403;50.832;10.950;2023-04-03T15:40:00;3.25;;;1.35;;
76801;SDS011;66403;50.832;10.950;2023-04-03T15:45:00;5.80;;;2.60;;
76801;SDS011;66403;50.832;10.950;2023-04-03T15:50:01;2.80;;;0.98;;
76801;SDS011;66403;50.832;10.950;2023-04-03T15:55:01;1.45;;;0.85;;
76801;SDS011;66403;50.832;10.950;2023-04-03T16:00:02;2.58;;;1.15;;
76801;SDS011;66403;50.832;10.950;2023-04-03T16:05:08;1.40;;;0.70;;
76801;SDS011;66403;50.832;10.950;2023-04-03T16:10:09;2.03;;;1.10;;
76801;SDS011;66403;50.832;10.950;2023-04-03T16:15:10;1.35;;;0.82;;
76801;SDS011;66403;50.832;10.950;2023-04-03T16:20:11;1.00;;;0.90;;
76801;SDS011;66403;50.832;10.950;2023-04-03T16:25:13;4.10;;;1.45;;
76801;SDS011;66403;50.832;10.950;2023-04-03T16:30:13;1.15;;;0.90;;
76801;SDS011;66403;50.832;10.950;2023-04-03T16:35:14;2.25;;;1.17;;
76801;SDS011;66403;50.832;10.950;2023-04-03T16:40:14;9.32;;;3.33;;
76801;SDS011;66403;50.832;10.950;2023-04-03T16:45:15;5.75;;;4.47;;
76801;SDS011;66403;50.832;10.950;2023-04-03T16:50:16;1.67;;;1.45;;
76801;SDS011;66403;50.832;10.950;2023-04-03T16:55:16;2.03;;;0.68;;
76801;SDS011;66403;50.832;10.950;2023-04-03T17:00:17;1.25;;;0.90;;
76801;SDS011;66403;50.832;10.950;2023-04-03T17:05:17;2.38;;;1.10;;
76801;SDS011;66403;50.832;10.950;2023-04-03T17:10:18;0.95;;;0.65;;
76801;SDS011;66403;50.832;10.950;2023-04-03T17:15:18;2.67;;;1.15;;
76801;SDS011;66403;50.832;10.950;2023-04-03T17:20:19;2.50;;;1.08;;
76801;SDS011;66403;50.832;10.950;2023-04-03T17:25:20;2.75;;;0.90;;
76801;SDS011;66403;50.832;10.950;2023-04-03T17:30:20;1.98;;;1.10;;
76801;SDS011;66403;50.832;10.950;2023-04-03T17:35:21;3.20;;;2.22;;
76801;SDS011;66403;50.832;10.950;2023-04-03T17:40:22;2.88;;;1.17;;
76801;SDS011;66403;50.832;10.950;2023-04-03T17:45:22;3.88;;;1.58;;
76801;SDS011;66403;50.832;10.950;2023-04-03T17:50:23;1.80;;;0.95;;
76801;SDS011;66403;50.832;10.950;2023-04-03T17:55:23;2.22;;;1.20;;
76801;SDS011;66403;50.832;10.950;2023-04-03T18:00:24;2.22;;;0.98;;
76801;SDS011;66403;50.832;10.950;2023-04-03T18:05:27;3.03;;;1.10;;
76801;SDS011;66403;50.832;10.950;2023-04-03T18:10:28;1.60;;;1.00;;
76801;SDS011;66403;50.832;10.950;2023-04-03T18:15:29;2.53;;;0.90;;
76801;SDS011;66403;50.832;10.950;2023-04-03T18:20:30;2.83;;;1.05;;
76801;SDS011;66403;50.832;10.950;2023-04-03T18:25:30;2.72;;;1.25;;
76801;SDS011;66403;50.832;10.950;2023-04-03T18:30:34;1.17;;;0.80;;
76801;SDS011;66403;50.832;10.950;2023-04-03T18:35:34;2.30;;;1.17;;
76801;SDS011;66403;50.832;10.950;2023-04-03T18:40:35;2.35;;;1.25;;
76801;SDS011;66403;50.832;10.950;2023-04-03T18:45:35;1.80;;;1.38;;
76801;SDS011;66403;50.832;10.950;2023-04-03T18:50:36;3.30;;;1.50;;
76801;SDS011;66403;50.832;10.950;2023-04-03T18:55:36;2.63;;;2.03;;
76801;SDS011;66403;50.832;10.950;2023-04-03T19:00:37;2.85;;;1.10;;
76801;SDS011;66403;50.832;10.950;2023-04-03T19:05:37;1.55;;;1.30;;
76801;SDS011;66403;50.832;10.950;2023-04-03T19:10:38;4.43;;;1.17;;
76801;SDS011;66403;50.832;10.950;2023-04-03T19:15:38;1.13;;;1.02;;
76801;SDS011;66403;50.832;10.950;2023-04-03T19:20:39;3.90;;;1.33;;
76801;SDS011;66403;50.832;10.950;2023-04-03T19:25:40;3.05;;;1.58;;
76801;SDS011;66403;50.832;10.950;2023-04-03T19:30:40;2.50;;;1.60;;
76801;SDS011;66403;50.832;10.950;2023-04-03T19:35:41;3.10;;;1.60;;
76801;SDS011;66403;50.832;10.950;2023-04-03T19:40:41;2.78;;;1.67;;
76801;SDS011;66403;50.832;10.950;2023-04-03T19:45:45;3.55;;;1.55;;
76801;SDS011;66403;50.832;10.950;2023-04-03T19:50:45;1.73;;;1.63;;
76801;SDS011;66403;50.832;10.950;2023-04-03T19:55:46;6.57;;;1.92;;
76801;SDS011;66403;50.832;10.950;2023-04-03T20:00:47;2.58;;;1.45;;
76801;SDS011;66403;50.832;10.950;2023-04-03T20:05:48;3.25;;;2.03;;
76801;SDS011;66403;50.832;10.950;2023-04-03T20:10:49;1.70;;;1.58;;
76801;SDS011;66403;50.832;10.950;2023-04-03T20:15:50;1.42;;;1.33;;
76801;SDS011;66403;50.832;10.950;2023-04-03T20:20:57;2.45;;;1.60;;
76801;SDS011;66403;50.832;10.950;2023-04-03T20:25:59;2.38;;;1.45;;
76801;SDS011;66403;50.832;10.950;2023-04-03T20:31:00;2.17;;;1.48;;
76801;SDS011;66403;50.832;10.950;2023-04-03T20:36:01;1.85;;;1.67;;
76801;SDS011;66403;50.832;10.950;2023-04-03T20:41:03;2.78;;;1.38;;
76801;SDS011;66403;50.832;10.950;2023-04-03T20:46:03;3.28;;;1.58;;
76801;SDS011;66403;50.832;10.950;2023-04-03T20:51:11;5.93;;;1.50;;
76801;SDS011;66403;50.832;10.950;2023-04-03T20:56:13;2.30;;;1.83;;
76801;SDS011;66403;50.832;10.950;2023-04-03T21:01:18;2.45;;;1.67;;
76801;SDS011;66403;50.832;10.950;2023-04-03T21:22:37;2.40;;;1.58;;
76801;SDS011;66403;50.832;10.950;2023-04-03T21:27:42;2.47;;;1.90;;
76801;SDS011;66403;50.832;10.950;2023-04-03T21:32:42;1.45;;;1.35;;
76801;SDS011;66403;50.832;10.950;2023-04-03T21:37:42;1.80;;;1.55;;
76801;SDS011;66403;50.832;10.950;2023-04-03T21:42:43;2.92;;;1.83;;
76801;SDS011;66403;50.832;10.950;2023-04-03T21:47:43;2.83;;;1.90;;
76801;SDS011;66403;50.832;10.950;2023-04-03T21:52:45;2.85;;;1.77;;
76801;SDS011;66403;50.832;10.950;2023-04-03T21:57:49;3.40;;;1.48;;
76801;SDS011;66403;50.832;10.950;2023-04-03T22:02:51;4.85;;;1.77;;
76801;SDS011;66403;50.832;10.950;2023-04-03T22:07:51;2.42;;;1.75;;
76801;SDS011;66403;50.832;10.950;2023-04-03T22:12:52;2.05;;;1.35;;
76801;SDS011;66403;50.832;10.950;2023-04-03T22:17:53;3.13;;;2.13;;
76801;SDS011;66403;50.832;10.950;2023-04-03T22:22:53;1.92;;;1.63;;
76801;SDS011;66403;50.832;10.950;2023-04-03T22:27:54;2.05;;;1.70;;
76801;SDS011;66403;50.832;10.950;2023-04-03T22:32:54;3.33;;;1.63;;
76801;SDS011;66403;50.832;10.950;2023-04-03T22:37:55;3.47;;;1.42;;
76801;SDS011;66403;50.832;10.950;2023-04-03T22:42:55;2.10;;;1.20;;
76801;SDS011;66403;50.832;10.950;2023-04-03T22:47:56;2.15;;;1.00;;
76801;SDS011;66403;50.832;10.950;2023-04-03T22:52:57;1.35;;;1.10;;
76801;SDS011;66403;50.832;10.950;2023-04-03T22:57:58;2.30;;;1.02;;
76801;SDS011;66403;50.832;10.950;2023-04-03T23:02:58;2.67;;;1.13;;
76801;SDS011;66403;50.832;10.950;2023-04-03T23:08:00;1.55;;;1.10;;
76801;SDS011;66403;50.832;10.950;2023-04-03T23:13:01;2.70;;;1.42;;
76801;SDS011;66403;50.832;10.950;2023-04-03T23:18:01;1.58;;;1.05;;
76801;SDS011;66403;50.832;10.950;2023-04-03T23:23:01;1.63;;;1.27;;
76801;SDS011;66403;50.832;10.950;2023-04-03T23:28:03;1.38;;;1.02;;
76801;SDS011;66403;50.832;10.950;2023-04-03T23:33:03;1.73;;;1.20;;
76801;SDS011;66403;50.832;10.950;2023-04-03T23:38:03;1.48;;;1.30;;
76801;SDS011;66403;50.832;10.950;2023-04-03T23:43:04;2.08;;;0.80;;
76801;SDS011;66403;50.832;10.950;2023-04-03T23:48:05;2.67;;;1.17;;
76801;SDS011;66403;50.832;10.950;2023-04-03T23:53:05;2.50;;;1.17;;
76801;SDS011;66403;50.832;10.950;2023-04-03T23:58:06;1.23;;;0.98;;
